sensor_id;sensor_type;location;lat;lon;timestamp;P1;durP1;ratioP1;P2;durP2;ratioP2
23282;SDS011;11810;51.178;3.878;2023-04-16T00:00:17;9.30;;;2.40;;
23282;SDS011;11810;51.178;3.878;2023-04-16T00:02:43;10.50;;;2.75;;
23282;SDS011;11810;51.178;3.878;2023-04-16T00:05:09;13.00;;;3.00;;
23282;SDS011;11810;51.178;3.878;2023-04-16T00:07:35;8.30;;;2.60;;
23282;SDS011;11810;51.178;3.878;2023-04-16T00:10:01;11.95;;;2.95;;
23282;SDS011;11810;51.178;3.878;2023-04-16T00:12:27;10.65;;;1.70;;
23282;SDS011;11810;51.178;3.878;2023-04-16T00:14:53;9.27;;;2.55;;
23282;SDS011;11810;51.178;3.878;2023-04-16T00:17:19;12.23;;;2.45;;
23282;SDS011;11810;51.178;3.878;2023-04-16T00:19:44;13.90;;;2.90;;
23282;SDS011;11810;51.178;3.878;2023-04-16T00:22:10;9.07;;;2.13;;
23282;SDS011;11810;51.178;3.878;2023-04-16T00:24:36;14.43;;;2.90;;
23282;SDS011;11810;51.178;3.878;2023-04-16T00:27:02;11.13;;;2.40;;
23282;SDS011;11810;51.178;3.878;2023-04-16T00:29:28;10.85;;;1.80;;
23282;SDS011;11810;51.178;3.878;2023-04-16T00:31:55;8.20;;;1.58;;
23282;SDS011;11810;51.178;3.878;2023-04-16T00:34:21;12.63;;;1.73;;
23282;SDS011;11810;51.178;3.878;2023-04-16T00:36:46;17.52;;;2.58;;
23282;SDS011;11810;51.178;3.878;2023-04-16T00:39:12;9.73;;;1.95;;
23282;SDS011;11810;51.178;3.878;2023-04-16T00:41:38;7.40;;;1.70;;
23282;SDS011;11810;51.178;3.878;2023-04-16T00:44:05;11.32;;;1.70;;
23282;SDS011;11810;51.178;3.878;2023-04-16T00:46:31;7.55;;;1.92;;
23282;SDS011;11810;51.178;3.878;2023-04-16T00:48:58;12.98;;;2.42;;
23282;SDS011;11810;51.178;3.878;2023-04-16T00:51:26;13.18;;;2.63;;
23282;SDS011;11810;51.178;3.878;2023-04-16T00:53:52;13.77;;;3.58;;
23282;SDS011;11810;51.178;3.878;2023-04-16T00:56:18;9.35;;;3.20;;
23282;SDS011;11810;51.178;3.878;2023-04-16T00:58:48;9.13;;;2.13;;
23282;SDS011;11810;51.178;3.878;2023-04-16T01:01:14;8.60;;;1.30;;
23282;SDS011;11810;51.178;3.878;2023-04-16T01:03:44;14.68;;;1.70;;
23282;SDS011;11810;51.178;3.878;2023-04-16T01:06:12;9.70;;;1.40;;
23282;SDS011;11810;51.178;3.878;2023-04-16T01:08:38;8.02;;;1.70;;
23282;SDS011;11810;51.178;3.878;2023-04-16T01:11:04;7.05;;;1.92;;
23282;SDS011;11810;51.178;3.878;2023-04-16T01:13:31;12.52;;;1.85;;
23282;SDS011;11810;51.178;3.878;2023-04-16T01:15:57;4.97;;;1.40;;
23282;SDS011;11810;51.178;3.878;2023-04-16T01:18:24;9.50;;;1.80;;
23282;SDS011;11810;51.178;3.878;2023-04-16T01:20:50;8.23;;;1.92;;
23282;SDS011;11810;51.178;3.878;2023-04-16T01:23:17;8.23;;;2.03;;
23282;SDS011;11810;51.178;3.878;2023-04-16T01:25:43;7.53;;;1.75;;
23282;SDS011;11810;51.178;3.878;2023-04-16T01:28:10;11.18;;;2.10;;
23282;SDS011;11810;51.178;3.878;2023-04-16T01:30:36;10.32;;;1.67;;
23282;SDS011;11810;51.178;3.878;2023-04-16T01:33:02;9.73;;;1.80;;
23282;SDS011;11810;51.178;3.878;2023-04-16T01:35:28;5.63;;;1.58;;
23282;SDS011;11810;51.178;3.878;2023-04-16T01:37:54;5.35;;;1.58;;
23282;SDS011;11810;51.178;3.878;2023-04-16T01:40:19;8.10;;;1.80;;
23282;SDS011;11810;51.178;3.878;2023-04-16T01:42:45;8.82;;;1.98;;
23282;SDS011;11810;51.178;3.878;2023-04-16T01:45:11;8.23;;;1.70;;
23282;SDS011;11810;51.178;3.878;2023-04-16T01:47:37;12.75;;;2.05;;
23282;SDS011;11810;51.178;3.878;2023-04-16T01:50:04;10.77;;;2.05;;
23282;SDS011;11810;51.178;3.878;2023-04-16T01:52:30;9.75;;;2.20;;
23282;SDS011;11810;51.178;3.878;2023-04-16T01:54:56;10.43;;;1.58;;
23282;SDS011;11810;51.178;3.878;2023-04-16T01:57:22;6.07;;;2.10;;
23282;SDS011;11810;51.178;3.878;2023-04-16T01:59:48;5.35;;;1.70;;
23282;SDS011;11810;51.178;3.878;2023-04-16T02:02:14;6.32;;;1.83;;
23282;SDS011;11810;51.178;3.878;2023-04-16T02:04:42;16.73;;;2.78;;
23282;SDS011;11810;51.178;3.878;2023-04-16T02:07:09;13.75;;;2.80;;
23282;SDS011;11810;51.178;3.878;2023-04-16T02:09:36;10.75;;;2.40;;
23282;SDS011;11810;51.178;3.878;2023-04-16T02:12:03;11.60;;;3.05;;
23282;SDS011;11810;51.178;3.878;2023-04-16T02:14:30;7.47;;;3.63;;
23282;SDS011;11810;51.178;3.878;2023-04-16T02:16:57;9.40;;;2.30;;
23282;SDS011;11810;51.178;3.878;2023-04-16T02:19:23;10.52;;;2.33;;
23282;SDS011;11810;51.178;3.878;2023-04-16T02:21:52;7.55;;;2.50;;
23282;SDS011;11810;51.178;3.878;2023-04-16T02:24:19;10.68;;;2.58;;
23282;SDS011;11810;51.178;3.878;2023-04-16T02:26:46;8.55;;;2.17;;
23282;SDS011;11810;51.178;3.878;2023-04-16T02:29:12;11.80;;;2.20;;
23282;SDS011;11810;51.178;3.878;2023-04-16T02:31:39;11.60;;;2.30;;
23282;SDS011;11810;51.178;3.878;2023-04-16T02:34:05;13.38;;;2.35;;
23282;SDS011;11810;51.178;3.878;2023-04-16T02:36:31;6.82;;;2.50;;
23282;SDS011;11810;51.178;3.878;2023-04-16T02:38:59;15.27;;;3.35;;
23282;SDS011;11810;51.178;3.878;2023-04-16T02:41:25;5.32;;;3.30;;
23282;SDS011;11810;51.178;3.878;2023-04-16T02:43:51;12.57;;;3.03;;
23282;SDS011;11810;51.178;3.878;2023-04-16T02:46:17;9.00;;;2.97;;
23282;SDS011;11810;51.178;3.878;2023-04-16T02:48:43;14.25;;;3.30;;
23282;SDS011;11810;51.178;3.878;2023-04-16T02:51:09;12.02;;;3.40;;
23282;SDS011;11810;51.178;3.878;2023-04-16T02:53:35;10.45;;;2.80;;
23282;SDS011;11810;51.178;3.878;2023-04-16T02:56:00;13.20;;;3.03;;
23282;SDS011;11810;51.178;3.878;2023-04-16T02:58:26;14.07;;;3.70;;
23282;SDS011;11810;51.178;3.878;2023-04-16T03:00:53;12.50;;;3.55;;
23282;SDS011;11810;51.178;3.878;2023-04-16T03:03:19;19.38;;;6.35;;
23282;SDS011;11810;51.178;3.878;2023-04-16T03:05:46;14.35;;;5.70;;
23282;SDS011;11810;51.178;3.878;2023-04-16T03:08:12;16.83;;;7.10;;
23282;SDS011;11810;51.178;3.878;2023-04-16T03:10:38;10.07;;;4.05;;
23282;SDS011;11810;51.178;3.878;2023-04-16T03:13:05;5.82;;;2.83;;
23282;SDS011;11810;51.178;3.878;2023-04-16T03:15:31;15.80;;;4.00;;
23282;SDS011;11810;51.178;3.878;2023-04-16T03:17:57;10.00;;;4.05;;
23282;SDS011;11810;51.178;3.878;2023-04-16T03:20:24;11.93;;;5.65;;
23282;SDS011;11810;51.178;3.878;2023-04-16T03:22:50;15.43;;;4.65;;
23282;SDS011;11810;51.178;3.878;2023-04-16T03:25:18;6.78;;;2.92;;
23282;SDS011;11810;51.178;3.878;2023-04-16T03:27:44;10.50;;;2.38;;
23282;SDS011;11810;51.178;3.878;2023-04-16T03:30:11;8.25;;;2.47;;
23282;SDS011;11810;51.178;3.878;2023-04-16T03:32:38;12.90;;;3.75;;
23282;SDS011;11810;51.178;3.878;2023-04-16T03:35:04;15.38;;;3.38;;
23282;SDS011;11810;51.178;3.878;2023-04-16T03:37:31;4.53;;;1.92;;
23282;SDS011;11810;51.178;3.878;2023-04-16T03:39:57;8.90;;;2.65;;
23282;SDS011;11810;51.178;3.878;2023-04-16T03:42:23;7.55;;;2.38;;
23282;SDS011;11810;51.178;3.878;2023-04-16T03:44:50;9.20;;;2.47;;
23282;SDS011;11810;51.178;3.878;2023-04-16T03:47:18;12.10;;;2.60;;
23282;SDS011;11810;51.178;3.878;2023-04-16T03:49:44;13.15;;;3.33;;
23282;SDS011;11810;51.178;3.878;2023-04-16T03:52:10;8.48;;;2.88;;
23282;SDS011;11810;51.178;3.878;2023-04-16T03:54:36;9.70;;;2.70;;
23282;SDS011;11810;51.178;3.878;2023-04-16T03:57:02;10.75;;;2.70;;
23282;SDS011;11810;51.178;3.878;2023-04-16T03:59:28;8.02;;;2.60;;
23282;SDS011;11810;51.178;3.878;2023-04-16T04:01:54;7.78;;;2.55;;
23282;SDS011;11810;51.178;3.878;2023-04-16T04:04:20;8.50;;;2.22;;
23282;SDS011;11810;51.178;3.878;2023-04-16T04:06:46;9.77;;;2.00;;
23282;SDS011;11810;51.178;3.878;2023-04-16T04:09:12;11.18;;;2.00;;
23282;SDS011;11810;51.178;3.878;2023-04-16T04:11:40;6.40;;;1.80;;
23282;SDS011;11810;51.178;3.878;2023-04-16T04:14:07;6.78;;;2.60;;
23282;SDS011;11810;51.178;3.878;2023-04-16T04:16:33;5.68;;;2.60;;
23282;SDS011;11810;51.178;3.878;2023-04-16T04:18:59;9.38;;;2.60;;
23282;SDS011;11810;51.178;3.878;2023-04-16T04:21:28;12.82;;;3.03;;
23282;SDS011;11810;51.178;3.878;2023-04-16T04:23:55;12.98;;;3.72;;
23282;SDS011;11810;51.178;3.878;2023-04-16T04:26:21;8.25;;;2.20;;
23282;SDS011;11810;51.178;3.878;2023-04-16T04:28:47;9.18;;;3.30;;
23282;SDS011;11810;51.178;3.878;2023-04-16T04:31:14;8.93;;;3.33;;
23282;SDS011;11810;51.178;3.878;2023-04-16T04:33:40;9.73;;;3.28;;
23282;SDS011;11810;51.178;3.878;2023-04-16T04:36:06;4.88;;;2.20;;
23282;SDS011;11810;51.178;3.878;2023-04-16T04:38:32;5.78;;;2.40;;
23282;SDS011;11810;51.178;3.878;2023-04-16T04:40:58;12.13;;;3.33;;
23282;SDS011;11810;51.178;3.878;2023-04-16T04:43:24;12.57;;;4.05;;
23282;SDS011;11810;51.178;3.878;2023-04-16T04:45:50;8.90;;;3.88;;
23282;SDS011;11810;51.178;3.878;2023-04-16T04:48:16;10.43;;;3.53;;
23282;SDS011;11810;51.178;3.878;2023-04-16T04:50:43;9.73;;;3.38;;
23282;SDS011;11810;51.178;3.878;2023-04-16T04:53:09;10.38;;;3.72;;
23282;SDS011;11810;51.178;3.878;2023-04-16T04:55:38;5.00;;;2.55;;
23282;SDS011;11810;51.178;3.878;2023-04-16T04:58:04;12.55;;;3.30;;
23282;SDS011;11810;51.178;3.878;2023-04-16T05:00:31;7.95;;;3.38;;
23282;SDS011;11810;51.178;3.878;2023-04-16T05:03:03;13.13;;;3.83;;
23282;SDS011;11810;51.178;3.878;2023-04-16T05:05:30;6.57;;;3.63;;
23282;SDS011;11810;51.178;3.878;2023-04-16T05:07:56;8.80;;;3.72;;
23282;SDS011;11810;51.178;3.878;2023-04-16T05:10:22;10.60;;;3.83;;
23282;SDS011;11810;51.178;3.878;2023-04-16T05:12:48;8.20;;;4.07;;
23282;SDS011;11810;51.178;3.878;2023-04-16T05:15:14;10.98;;;4.47;;
23282;SDS011;11810;51.178;3.878;2023-04-16T05:17:40;15.52;;;5.75;;
23282;SDS011;11810;51.178;3.878;2023-04-16T05:20:07;10.73;;;5.55;;
23282;SDS011;11810;51.178;3.878;2023-04-16T05:22:33;9.00;;;5.35;;
23282;SDS011;11810;51.178;3.878;2023-04-16T05:24:59;10.88;;;3.50;;
23282;SDS011;11810;51.178;3.878;2023-04-16T05:27:25;7.63;;;3.20;;
23282;SDS011;11810;51.178;3.878;2023-04-16T05:29:51;8.52;;;4.00;;
23282;SDS011;11810;51.178;3.878;2023-04-16T05:32:17;9.82;;;3.55;;
23282;SDS011;11810;51.178;3.878;2023-04-16T05:34:43;7.75;;;2.78;;
23282;SDS011;11810;51.178;3.878;2023-04-16T05:37:09;14.90;;;3.70;;
23282;SDS011;11810;51.178;3.878;2023-04-16T05:39:34;12.38;;;3.42;;
23282;SDS011;11810;51.178;3.878;2023-04-16T05:42:00;11.60;;;3.72;;
23282;SDS011;11810;51.178;3.878;2023-04-16T05:44:26;11.55;;;3.78;;
23282;SDS011;11810;51.178;3.878;2023-04-16T05:46:52;12.43;;;3.50;;
23282;SDS011;11810;51.178;3.878;2023-04-16T05:49:18;9.10;;;3.72;;
23282;SDS011;11810;51.178;3.878;2023-04-16T05:51:45;7.18;;;3.60;;
23282;SDS011;11810;51.178;3.878;2023-04-16T05:54:12;9.95;;;3.58;;
23282;SDS011;11810;51.178;3.878;2023-04-16T05:56:38;9.63;;;3.75;;
23282;SDS011;11810;51.178;3.878;2023-04-16T05:59:05;10.57;;;3.88;;
23282;SDS011;11810;51.178;3.878;2023-04-16T06:01:31;10.98;;;3.97;;
23282;SDS011;11810;51.178;3.878;2023-04-16T06:03:57;10.35;;;3.63;;
23282;SDS011;11810;51.178;3.878;2023-04-16T06:06:23;9.43;;;4.28;;
23282;SDS011;11810;51.178;3.878;2023-04-16T06:08:49;9.32;;;4.30;;
23282;SDS011;11810;51.178;3.878;2023-04-16T06:11:14;16.67;;;5.40;;
23282;SDS011;11810;51.178;3.878;2023-04-16T06:13:41;11.40;;;4.50;;
23282;SDS011;11810;51.178;3.878;2023-04-16T06:16:07;11.90;;;5.00;;
23282;SDS011;11810;51.178;3.878;2023-04-16T06:18:32;13.32;;;5.07;;
23282;SDS011;11810;51.178;3.878;2023-04-16T06:20:58;17.17;;;5.90;;
23282;SDS011;11810;51.178;3.878;2023-04-16T06:23:25;13.38;;;3.88;;
23282;SDS011;11810;51.178;3.878;2023-04-16T06:25:50;9.88;;;4.38;;
23282;SDS011;11810;51.178;3.878;2023-04-16T06:28:16;11.32;;;4.90;;
23282;SDS011;11810;51.178;3.878;2023-04-16T06:30:42;15.20;;;7.05;;
23282;SDS011;11810;51.178;3.878;2023-04-16T06:33:08;9.90;;;6.18;;
23282;SDS011;11810;51.178;3.878;2023-04-16T06:35:34;7.65;;;4.43;;
23282;SDS011;11810;51.178;3.878;2023-04-16T06:38:00;9.57;;;4.13;;
23282;SDS011;11810;51.178;3.878;2023-04-16T06:40:26;6.60;;;3.63;;
23282;SDS011;11810;51.178;3.878;2023-04-16T06:42:52;10.70;;;4.20;;
23282;SDS011;11810;51.178;3.878;2023-04-16T06:45:18;8.98;;;4.28;;
23282;SDS011;11810;51.178;3.878;2023-04-16T06:47:44;10.70;;;3.88;;
23282;SDS011;11810;51.178;3.878;2023-04-16T06:50:10;11.80;;;3.03;;
23282;SDS011;11810;51.178;3.878;2023-04-16T06:52:36;13.18;;;3.90;;
23282;SDS011;11810;51.178;3.878;2023-04-16T06:55:02;13.05;;;3.50;;
23282;SDS011;11810;51.178;3.878;2023-04-16T06:57:28;13.77;;;3.50;;
23282;SDS011;11810;51.178;3.878;2023-04-16T06:59:54;11.60;;;3.38;;
23282;SDS011;11810;51.178;3.878;2023-04-16T07:02:20;7.68;;;3.20;;
23282;SDS011;11810;51.178;3.878;2023-04-16T07:04:46;8.57;;;3.15;;
23282;SDS011;11810;51.178;3.878;2023-04-16T07:07:12;10.25;;;3.25;;
23282;SDS011;11810;51.178;3.878;2023-04-16T07:09:38;8.93;;;2.92;;
23282;SDS011;11810;51.178;3.878;2023-04-16T07:12:04;8.98;;;3.75;;
23282;SDS011;11810;51.178;3.878;2023-04-16T07:14:31;13.30;;;4.70;;
23282;SDS011;11810;51.178;3.878;2023-04-16T07:16:57;13.95;;;5.25;;
23282;SDS011;11810;51.178;3.878;2023-04-16T07:19:22;8.20;;;4.95;;
23282;SDS011;11810;51.178;3.878;2023-04-16T07:21:48;11.50;;;5.43;;
23282;SDS011;11810;51.178;3.878;2023-04-16T07:24:14;8.50;;;4.80;;
23282;SDS011;11810;51.178;3.878;2023-04-16T07:26:41;13.45;;;5.47;;
23282;SDS011;11810;51.178;3.878;2023-04-16T07:29:07;21.17;;;6.78;;
23282;SDS011;11810;51.178;3.878;2023-04-16T07:31:32;9.98;;;5.82;;
23282;SDS011;11810;51.178;3.878;2023-04-16T07:33:58;13.55;;;4.97;;
23282;SDS011;11810;51.178;3.878;2023-04-16T07:36:25;15.73;;;5.05;;
23282;SDS011;11810;51.178;3.878;2023-04-16T07:38:52;13.55;;;5.32;;
23282;SDS011;11810;51.178;3.878;2023-04-16T07:41:18;14.32;;;5.05;;
23282;SDS011;11810;51.178;3.878;2023-04-16T07:43:44;14.00;;;5.35;;
23282;SDS011;11810;51.178;3.878;2023-04-16T07:46:10;18.75;;;5.20;;
23282;SDS011;11810;51.178;3.878;2023-04-16T07:48:36;12.75;;;5.63;;
23282;SDS011;11810;51.178;3.878;2023-04-16T07:51:02;14.20;;;4.80;;
23282;SDS011;11810;51.178;3.878;2023-04-16T07:53:28;13.13;;;5.15;;
23282;SDS011;11810;51.178;3.878;2023-04-16T07:55:54;10.05;;;5.07;;
23282;SDS011;11810;51.178;3.878;2023-04-16T07:58:20;14.95;;;6.30;;
23282;SDS011;11810;51.178;3.878;2023-04-16T08:00:46;12.13;;;5.47;;
23282;SDS011;11810;51.178;3.878;2023-04-16T08:03:11;14.70;;;5.85;;
23282;SDS011;11810;51.178;3.878;2023-04-16T08:05:40;13.30;;;6.10;;
23282;SDS011;11810;51.178;3.878;2023-04-16T08:08:05;16.55;;;5.82;;
23282;SDS011;11810;51.178;3.878;2023-04-16T08:10:31;11.88;;;4.10;;
23282;SDS011;11810;51.178;3.878;2023-04-16T08:12:59;9.52;;;3.92;;
23282;SDS011;11810;51.178;3.878;2023-04-16T08:15:25;14.40;;;3.90;;
23282;SDS011;11810;51.178;3.878;2023-04-16T08:17:51;7.65;;;3.45;;
23282;SDS011;11810;51.178;3.878;2023-04-16T08:20:17;9.80;;;3.88;;
23282;SDS011;11810;51.178;3.878;2023-04-16T08:22:44;8.75;;;2.80;;
23282;SDS011;11810;51.178;3.878;2023-04-16T08:25:10;8.95;;;3.00;;
23282;SDS011;11810;51.178;3.878;2023-04-16T08:27:36;6.93;;;3.25;;
23282;SDS011;11810;51.178;3.878;2023-04-16T08:30:02;11.88;;;3.10;;
23282;SDS011;11810;51.178;3.878;2023-04-16T08:32:29;9.27;;;2.97;;
23282;SDS011;11810;51.178;3.878;2023-04-16T08:34:55;7.00;;;3.50;;
23282;SDS011;11810;51.178;3.878;2023-04-16T08:37:21;5.15;;;3.08;;
23282;SDS011;11810;51.178;3.878;2023-04-16T08:39:47;12.50;;;3.33;;
23282;SDS011;11810;51.178;3.878;2023-04-16T08:42:23;9.02;;;3.78;;
23282;SDS011;11810;51.178;3.878;2023-04-16T08:45:01;6.55;;;3.20;;
23282;SDS011;11810;51.178;3.878;2023-04-16T08:47:33;10.63;;;3.80;;
23282;SDS011;11810;51.178;3.878;2023-04-16T08:50:02;12.18;;;3.25;;
23282;SDS011;11810;51.178;3.878;2023-04-16T08:52:29;8.65;;;3.25;;
23282;SDS011;11810;51.178;3.878;2023-04-16T08:55:11;7.55;;;3.53;;
23282;SDS011;11810;51.178;3.878;2023-04-16T08:57:42;12.82;;;3.85;;
23282;SDS011;11810;51.178;3.878;2023-04-16T09:00:11;14.70;;;3.75;;
23282;SDS011;11810;51.178;3.878;2023-04-16T09:02:38;9.45;;;3.85;;
23282;SDS011;11810;51.178;3.878;2023-04-16T09:05:06;8.40;;;3.92;;
23282;SDS011;11810;51.178;3.878;2023-04-16T09:07:33;8.20;;;3.63;;
23282;SDS011;11810;51.178;3.878;2023-04-16T09:09:59;8.63;;;3.53;;
23282;SDS011;11810;51.178;3.878;2023-04-16T09:12:26;12.52;;;4.35;;
23282;SDS011;11810;51.178;3.878;2023-04-16T09:14:52;8.45;;;4.18;;
23282;SDS011;11810;51.178;3.878;2023-04-16T09:17:18;11.18;;;4.40;;
23282;SDS011;11810;51.178;3.878;2023-04-16T09:19:44;7.60;;;3.60;;
23282;SDS011;11810;51.178;3.878;2023-04-16T09:22:10;13.35;;;4.95;;
23282;SDS011;11810;51.178;3.878;2023-04-16T09:24:36;8.95;;;3.38;;
23282;SDS011;11810;51.178;3.878;2023-04-16T09:27:02;11.75;;;3.83;;
23282;SDS011;11810;51.178;3.878;2023-04-16T09:29:35;8.98;;;3.70;;
23282;SDS011;11810;51.178;3.878;2023-04-16T09:32:03;9.55;;;3.97;;
23282;SDS011;11810;51.178;3.878;2023-04-16T09:34:33;4.45;;;3.15;;
23282;SDS011;11810;51.178;3.878;2023-04-16T09:37:17;12.13;;;4.10;;
23282;SDS011;11810;51.178;3.878;2023-04-16T09:39:43;8.05;;;3.70;;
23282;SDS011;11810;51.178;3.878;2023-04-16T09:42:20;8.40;;;3.33;;
23282;SDS011;11810;51.178;3.878;2023-04-16T09:44:48;12.95;;;4.40;;
23282;SDS011;11810;51.178;3.878;2023-04-16T09:47:14;7.63;;;4.43;;
23282;SDS011;11810;51.178;3.878;2023-04-16T09:49:41;11.65;;;4.28;;
23282;SDS011;11810;51.178;3.878;2023-04-16T09:52:41;12.45;;;4.00;;
23282;SDS011;11810;51.178;3.878;2023-04-16T09:55:05;8.07;;;3.78;;
23282;SDS011;11810;51.178;3.878;2023-04-16T09:57:31;8.38;;;3.88;;
23282;SDS011;11810;51.178;3.878;2023-04-16T10:00:01;7.45;;;3.78;;
23282;SDS011;11810;51.178;3.878;2023-04-16T10:02:29;13.85;;;4.70;;
23282;SDS011;11810;51.178;3.878;2023-04-16T10:04:55;11.32;;;4.38;;
23282;SDS011;11810;51.178;3.878;2023-04-16T10:07:21;10.40;;;3.78;;
23282;SDS011;11810;51.178;3.878;2023-04-16T10:09:52;9.25;;;4.32;;
23282;SDS011;11810;51.178;3.878;2023-04-16T10:12:20;12.20;;;4.22;;
23282;SDS011;11810;51.178;3.878;2023-04-16T10:14:46;9.07;;;3.92;;
23282;SDS011;11810;51.178;3.878;2023-04-16T10:17:12;7.68;;;3.70;;
23282;SDS011;11810;51.178;3.878;2023-04-16T10:19:38;12.98;;;4.07;;
23282;SDS011;11810;51.178;3.878;2023-04-16T10:22:04;11.40;;;4.35;;
23282;SDS011;11810;51.178;3.878;2023-04-16T10:24:32;12.20;;;4.28;;
23282;SDS011;11810;51.178;3.878;2023-04-16T10:26:58;14.02;;;4.32;;
23282;SDS011;11810;51.178;3.878;2023-04-16T10:29:29;8.63;;;4.38;;
23282;SDS011;11810;51.178;3.878;2023-04-16T10:31:55;16.02;;;5.38;;
23282;SDS011;11810;51.178;3.878;2023-04-16T10:34:23;6.90;;;4.07;;
23282;SDS011;11810;51.178;3.878;2023-04-16T10:36:51;11.02;;;4.57;;
23282;SDS011;11810;51.178;3.878;2023-04-16T10:39:19;10.98;;;5.28;;
23282;SDS011;11810;51.178;3.878;2023-04-16T10:42:05;10.40;;;4.47;;
23282;SDS011;11810;51.178;3.878;2023-04-16T10:44:32;7.35;;;4.15;;
23282;SDS011;11810;51.178;3.878;2023-04-16T10:46:58;10.65;;;4.97;;
23282;SDS011;11810;51.178;3.878;2023-04-16T10:49:24;8.10;;;4.75;;
23282;SDS011;11810;51.178;3.878;2023-04-16T10:51:51;7.50;;;4.45;;
23282;SDS011;11810;51.178;3.878;2023-04-16T10:54:27;11.43;;;4.53;;
23282;SDS011;11810;51.178;3.878;2023-04-16T10:56:56;11.85;;;4.20;;
23282;SDS011;11810;51.178;3.878;2023-04-16T10:59:23;10.27;;;4.05;;
23282;SDS011;11810;51.178;3.878;2023-04-16T11:01:54;10.52;;;3.90;;
23282;SDS011;11810;51.178;3.878;2023-04-16T11:07:04;8.93;;;4.22;;
23282;SDS011;11810;51.178;3.878;2023-04-16T11:09:51;6.87;;;4.47;;
23282;SDS011;11810;51.178;3.878;2023-04-16T11:12:21;9.15;;;4.47;;
23282;SDS011;11810;51.178;3.878;2023-04-16T11:14:52;13.00;;;4.45;;
23282;SDS011;11810;51.178;3.878;2023-04-16T11:20:05;6.97;;;4.05;;
23282;SDS011;11810;51.178;3.878;2023-04-16T11:22:39;7.15;;;4.53;;
23282;SDS011;11810;51.178;3.878;2023-04-16T11:25:06;16.20;;;4.70;;
23282;SDS011;11810;51.178;3.878;2023-04-16T11:27:32;13.02;;;4.85;;
23282;SDS011;11810;51.178;3.878;2023-04-16T11:29:59;13.73;;;5.15;;
23282;SDS011;11810;51.178;3.878;2023-04-16T11:32:26;11.43;;;5.13;;
23282;SDS011;11810;51.178;3.878;2023-04-16T11:34:55;9.70;;;4.45;;
23282;SDS011;11810;51.178;3.878;2023-04-16T11:37:30;10.63;;;4.47;;
23282;SDS011;11810;51.178;3.878;2023-04-16T11:40:00;16.20;;;5.57;;
23282;SDS011;11810;51.178;3.878;2023-04-16T11:42:28;10.05;;;5.20;;
23282;SDS011;11810;51.178;3.878;2023-04-16T11:44:55;7.18;;;3.50;;
23282;SDS011;11810;51.178;3.878;2023-04-16T11:47:24;4.95;;;3.33;;
23282;SDS011;11810;51.178;3.878;2023-04-16T11:49:51;6.13;;;2.92;;
23282;SDS011;11810;51.178;3.878;2023-04-16T11:52:27;7.43;;;3.90;;
23282;SDS011;11810;51.178;3.878;2023-04-16T11:54:55;9.93;;;4.68;;
23282;SDS011;11810;51.178;3.878;2023-04-16T11:59:58;9.05;;;4.18;;
23282;SDS011;11810;51.178;3.878;2023-04-16T12:02:34;8.25;;;4.43;;
23282;SDS011;11810;51.178;3.878;2023-04-16T12:05:05;6.32;;;4.30;;
23282;SDS011;11810;51.178;3.878;2023-04-16T12:07:44;11.27;;;4.22;;
23282;SDS011;11810;51.178;3.878;2023-04-16T12:10:10;8.70;;;4.05;;
23282;SDS011;11810;51.178;3.878;2023-04-16T12:12:36;11.45;;;4.55;;
23282;SDS011;11810;51.178;3.878;2023-04-16T12:15:02;10.50;;;4.65;;
23282;SDS011;11810;51.178;3.878;2023-04-16T12:17:30;8.52;;;4.82;;
23282;SDS011;11810;51.178;3.878;2023-04-16T12:19:58;12.23;;;5.57;;
23282;SDS011;11810;51.178;3.878;2023-04-16T12:22:32;15.68;;;5.43;;
23282;SDS011;11810;51.178;3.878;2023-04-16T12:25:20;11.93;;;5.35;;
23282;SDS011;11810;51.178;3.878;2023-04-16T12:27:52;15.48;;;6.15;;
23282;SDS011;11810;51.178;3.878;2023-04-16T12:30:20;11.20;;;5.50;;
23282;SDS011;11810;51.178;3.878;2023-04-16T12:32:48;15.27;;;6.53;;
23282;SDS011;11810;51.178;3.878;2023-04-16T12:35:28;14.20;;;5.53;;
23282;SDS011;11810;51.178;3.878;2023-04-16T12:37:55;14.07;;;5.72;;
23282;SDS011;11810;51.178;3.878;2023-04-16T12:40:21;13.02;;;7.53;;
23282;SDS011;11810;51.178;3.878;2023-04-16T12:42:47;9.52;;;6.20;;
23282;SDS011;11810;51.178;3.878;2023-04-16T12:45:13;13.55;;;7.78;;
23282;SDS011;11810;51.178;3.878;2023-04-16T12:47:39;10.70;;;6.00;;
23282;SDS011;11810;51.178;3.878;2023-04-16T12:50:05;17.63;;;6.15;;
23282;SDS011;11810;51.178;3.878;2023-04-16T12:52:32;11.30;;;5.10;;
23282;SDS011;11810;51.178;3.878;2023-04-16T12:55:00;10.88;;;5.18;;
23282;SDS011;11810;51.178;3.878;2023-04-16T12:57:26;11.88;;;6.10;;
23282;SDS011;11810;51.178;3.878;2023-04-16T12:59:56;15.43;;;6.72;;
23282;SDS011;11810;51.178;3.878;2023-04-16T13:02:23;10.10;;;4.43;;
23282;SDS011;11810;51.178;3.878;2023-04-16T13:04:50;11.73;;;4.38;;
23282;SDS011;11810;51.178;3.878;2023-04-16T13:07:16;12.23;;;4.97;;
23282;SDS011;11810;51.178;3.878;2023-04-16T13:09:43;13.73;;;4.40;;
23282;SDS011;11810;51.178;3.878;2023-04-16T13:12:10;11.77;;;4.60;;
23282;SDS011;11810;51.178;3.878;2023-04-16T13:14:36;15.50;;;4.75;;
23282;SDS011;11810;51.178;3.878;2023-04-16T13:17:02;12.82;;;5.32;;
23282;SDS011;11810;51.178;3.878;2023-04-16T13:19:28;14.30;;;6.78;;
23282;SDS011;11810;51.178;3.878;2023-04-16T13:21:55;16.13;;;6.45;;
23282;SDS011;11810;51.178;3.878;2023-04-16T13:24:22;14.95;;;5.47;;
23282;SDS011;11810;51.178;3.878;2023-04-16T13:26:48;14.93;;;5.97;;
23282;SDS011;11810;51.178;3.878;2023-04-16T13:29:16;7.00;;;4.10;;
23282;SDS011;11810;51.178;3.878;2023-04-16T13:31:42;10.05;;;4.50;;
23282;SDS011;11810;51.178;3.878;2023-04-16T13:34:08;14.68;;;4.35;;
23282;SDS011;11810;51.178;3.878;2023-04-16T13:36:34;12.77;;;4.75;;
23282;SDS011;11810;51.178;3.878;2023-04-16T13:39:00;11.30;;;5.88;;
23282;SDS011;11810;51.178;3.878;2023-04-16T13:41:28;8.20;;;5.30;;
23282;SDS011;11810;51.178;3.878;2023-04-16T13:43:54;14.93;;;5.63;;
23282;SDS011;11810;51.178;3.878;2023-04-16T13:46:20;14.63;;;5.57;;
23282;SDS011;11810;51.178;3.878;2023-04-16T13:48:46;12.30;;;6.80;;
23282;SDS011;11810;51.178;3.878;2023-04-16T13:51:12;12.30;;;6.18;;
23282;SDS011;11810;51.178;3.878;2023-04-16T13:53:39;10.38;;;5.50;;
23282;SDS011;11810;51.178;3.878;2023-04-16T13:56:05;10.93;;;5.18;;
23282;SDS011;11810;51.178;3.878;2023-04-16T13:58:32;16.23;;;6.70;;
23282;SDS011;11810;51.178;3.878;2023-04-16T14:00:58;11.90;;;5.82;;
23282;SDS011;11810;51.178;3.878;2023-04-16T14:03:24;11.00;;;6.63;;
23282;SDS011;11810;51.178;3.878;2023-04-16T14:05:53;11.65;;;6.30;;
23282;SDS011;11810;51.178;3.878;2023-04-16T14:08:19;16.42;;;7.00;;
23282;SDS011;11810;51.178;3.878;2023-04-16T14:10:48;11.50;;;5.55;;
23282;SDS011;11810;51.178;3.878;2023-04-16T14:13:14;10.77;;;5.93;;
23282;SDS011;11810;51.178;3.878;2023-04-16T14:15:40;13.73;;;8.30;;
23282;SDS011;11810;51.178;3.878;2023-04-16T14:18:06;22.98;;;8.43;;
23282;SDS011;11810;51.178;3.878;2023-04-16T14:20:32;15.05;;;6.45;;
23282;SDS011;11810;51.178;3.878;2023-04-16T14:22:58;14.05;;;6.15;;
23282;SDS011;11810;51.178;3.878;2023-04-16T14:25:24;10.18;;;5.22;;
23282;SDS011;11810;51.178;3.878;2023-04-16T14:27:50;12.85;;;3.85;;
23282;SDS011;11810;51.178;3.878;2023-04-16T14:30:16;8.63;;;3.55;;
23282;SDS011;11810;51.178;3.878;2023-04-16T14:32:42;7.32;;;3.80;;
23282;SDS011;11810;51.178;3.878;2023-04-16T14:35:08;5.80;;;3.45;;
23282;SDS011;11810;51.178;3.878;2023-04-16T14:37:34;12.50;;;3.88;;
23282;SDS011;11810;51.178;3.878;2023-04-16T14:40:01;10.23;;;4.03;;
23282;SDS011;11810;51.178;3.878;2023-04-16T14:42:32;13.77;;;4.75;;
23282;SDS011;11810;51.178;3.878;2023-04-16T14:45:00;9.43;;;4.85;;
23282;SDS011;11810;51.178;3.878;2023-04-16T14:47:27;12.40;;;6.35;;